• Join FlightAware (Why Join?)
  • Login
  • US Flag 
05:48PM EDT


 

Airport Tracker/Info


-or-


 

Live Flight TrackerFlight Track Log ✈ UAL4335 ✈ 15-Apr-2013 ✈ KEWR - KCVG

Flight Track Log - Related Links

Times and Time Zones

All times are in EDT time to prevent confusion due to time zone crossing. See the UAL4335 flight status page for this flight to view local times or setup timezone preferences in your user account.

Time Position Orientation Groundspeed Altitude Reporting Facility
EDT Latitude Longitude Course Direction KTS MPH feet Rate Location/Type
03:40PM 40.6500 -74.1833 270° West 175 201 1,900  Level New York TRACON
03:41PM 40.6333 -74.2500 252° West 242 278 3,600 2,220 Climbing New York TRACON
03:42PM 40.6500 -74.3333 285° West 242 278 6,200 2,220 Climbing New York TRACON
03:43PM 40.6834 -74.6805 270° West  Level FlightAware Approximate
03:43PM 40.6667 -74.4333 282° West 270 311 8,300  Level New York TRACON
03:44PM 40.6834 -74.8089 270° West  Level FlightAware Approximate
03:44PM 40.6833 -74.5333 282° West 282 325 10,200  Level New York TRACON
03:45PM 40.6833 -74.9374 270° West  Level FlightAware Approximate
03:45PM 40.7333 -74.6167 308° West 320 368 11,000  Level New York TRACON
03:46PM 40.7858 -74.6958 311° West 339 390 11,800 1,140 Climbing New York Center
03:47PM 40.7714 -74.8183 261° West 317 365 13,200 1,260 Climbing New York Center
03:48PM 40.7319 -74.9364 246° West 326 375 14,400 1,680 Climbing New York Center
03:49PM 40.6925 -75.0489 245° Southwest 343 395 16,600 1,680 Climbing New York Center
03:50PM 40.6469 -75.1556 241° Southwest 343 395 17,800 1,140 Climbing New York Center
03:51PM 40.5950 -75.2586 236° Southwest 343 395 19,000 1,080 Climbing New York Center
03:52PM 40.5431 -75.3644 237° Southwest 348 400 20,100 1,140 Climbing New York Center
03:53PM 40.4886 -75.4756 237° Southwest 354 407 21,300 1,080 Climbing New York Center
03:54PM 40.4361 -75.5892 239° Southwest 361 415 22,300 900 Climbing New York Center
03:55PM 40.3881 -75.6950 239° Southwest 371 427 23,200 840 Climbing New York Center
03:56PM 40.3331 -75.8136 239° Southwest 378 435 24,000 360 Climbing New York Center
03:57PM 40.2733 -75.9369 238° Southwest 391 450 24,000  Level New York Center
03:58PM 40.2178 -76.0661 241° Southwest 397 457 24,000  Level New York Center
03:59PM 40.1639 -76.1978 242° Southwest 408 470 24,000  Level New York Center
04:00PM 40.1053 -76.3317 240° Southwest 414 476 24,000  Level New York Center
04:01PM 40.0594 -76.4664 246° West 419 482 24,000  Level New York Center
04:02PM 40.0394 -76.6167 260° West 412 474 24,000  Level New York Center
04:03PM 40.0242 -76.7592 262° West 412 474 24,000  Level New York Center
04:05PM 39.8756 -77.0703 238° Southwest 428 493 24,000  Level Washington Center
04:06PM 39.7947 -77.1928 229° Southwest 439 505 24,000  Level Washington Center
04:07PM 39.7181 -77.3125 230° Southwest 444 511 24,000  Level Washington Center
04:08PM 39.6456 -77.4347 232° Southwest 444 511 24,000  Level Washington Center
04:09PM 39.5706 -77.5567 231° Southwest 439 505 24,000  Level Washington Center
04:10PM 39.4978 -77.6758 232° Southwest 439 505 24,000  Level Washington Center
04:11PM 39.4228 -77.7919 230° Southwest 439 505 24,000  Level Washington Center
04:12PM 39.3558 -77.9161 235° Southwest 434 499 24,000  Level Washington Center
04:13PM 39.3053 -78.0458 243° Southwest 429 494 24,000  Level Washington Center
04:14PM 39.2544 -78.1781 244° Southwest 417 480 24,000  Level Washington Center
04:15PM 39.2061 -78.2969 242° Southwest 412 474 24,000  Level Washington Center
04:16PM 39.1531 -78.4289 243° Southwest 412 474 24,000  Level Washington Center
04:17PM 39.1000 -78.5578 242° Southwest 412 474 24,000  Level Washington Center
04:18PM 39.0467 -78.6892 242° Southwest 412 474 24,000  Level Washington Center
04:19PM 38.9931 -78.8206 242° Southwest 417 480 24,000  Level Washington Center
04:20PM 38.9394 -78.9517 242° Southwest 417 480 24,000  Level Washington Center
04:21PM 38.8878 -79.0775 242° Southwest 417 480 24,000  Level Washington Center
04:22PM 38.8422 -79.2111 246° West 412 474 24,000  Level Washington Center
04:23PM 38.8358 -79.3522 267° West 399 459 24,000  Level Washington Center
04:24PM 38.8333 -79.4958 269° West 399 459 24,000  Level Washington Center
04:25PM 38.8347 -79.6453 271° West 411 473 24,000  Level Washington Center
04:26PM 38.8297 -79.7861 267° West 411 473 24,000  Level Washington Center
04:28PM 38.8192 -80.0850 267° West 398 458 24,000  Level Indianapolis Center
04:29PM 38.8156 -80.2272 268° West 398 458 24,000  Level Indianapolis Center
04:30PM 38.8103 -80.3969 268° West 396 456 24,000  Level Indianapolis Center
04:31PM 38.8081 -80.5394 269° West 400 460 24,000  Level Indianapolis Center
04:32PM 38.8033 -80.6808 268° West 399 459 24,000  Level Indianapolis Center
04:33PM 38.7986 -80.8231 268° West 400 460 24,000  Level Indianapolis Center
04:34PM 38.7847 -80.9628 263° West 396 456 24,000  Level Indianapolis Center
04:35PM 38.7628 -81.1042 259° West 404 465 24,000  Level Indianapolis Center
04:36PM 38.7361 -81.2728 259° West 402 463 24,000  Level Indianapolis Center
04:37PM 38.7142 -81.4133 259° West 403 464 24,000  Level Indianapolis Center
04:38PM 38.6928 -81.5439 258° West 406 467 24,000  Level Indianapolis Center
04:40PM 38.6667 -81.7100 259° West 404 465 24,000  Level Indianapolis Center
04:41PM 38.6433 -81.8500 258° West 403 464 24,000  Level Indianapolis Center
04:42PM 38.6200 -81.9900 258° West 401 461 24,000  Level Indianapolis Center
04:43PM 38.5969 -82.1286 258° West 401 461 24,000  Level Indianapolis Center
04:44PM 38.5733 -82.2669 258° West 398 458 24,000  Level Indianapolis Center
04:45PM 38.5508 -82.4047 258° West 397 457 24,000 -480 Level Indianapolis Center
04:46PM 38.5233 -82.5606 257° West 392 451 23,100 -1,080 Descending Indianapolis Center
04:48PM 38.5278 -82.8247 271° West 374 430 20,700 -1,440 Descending Indianapolis Center
04:49PM 38.5392 -82.9600 276° West 380 437 18,800 -1,800 Descending Indianapolis Center
04:50PM 38.5511 -83.1131 276° West 373 429 17,000 -1,740 Descending Indianapolis Center
04:51PM 38.5619 -83.2442 276° West 371 427 15,300 -1,620 Descending Indianapolis Center
04:52PM 38.5719 -83.3756 276° West 371 427 13,700 -1,620 Descending Indianapolis Center
04:53PM 38.5814 -83.4997 276° West 357 411 12,000 -1,440 Descending Indianapolis Center
04:54PM 38.5911 -83.6194 276° West 342 394 10,800 -1,020 Descending Indianapolis Center
04:55PM 38.6000 -83.7375 276° West 333 383 10,000 -420 Descending Indianapolis Center
04:56PM 38.6103 -83.8747 276° West 332 382 10,000  Level Indianapolis Center
04:57PM 38.6447 -83.9853 292° West 343 395 10,000  Level Indianapolis Center
04:58PM 38.6958 -84.0800 305° West 345 397 10,000  Level Indianapolis Center
04:59PM 38.7483 -84.1833 303° West 343 395 10,000  Level Indianapolis Center
05:00PM 38.8011 -84.2850 304° West 341 392 10,000  Level Indianapolis Center
05:01PM 38.8542 -84.3864 304° West 338 389 10,000  Level Indianapolis Center
05:02PM 38.9000 -84.4833 301° West 338 389 10,000 -60 Level Cincinnati TRACON
05:03PM 38.9833 -84.5333 335° Northwest 304 350 9,900 -840 Descending Cincinnati TRACON
05:04PM 39.0667 -84.5333 360° North 277 319 8,200 -1,680 Descending Cincinnati TRACON
05:05PM 39.1333 -84.5333 360° North 275 316 6,600 -2,040 Descending Cincinnati TRACON
05:05PM 39.1550 -84.5419 343° North 283 326 5,900 -2,040 Descending Indianapolis Center
05:06PM 39.1989 -84.6117 309° West 277 319 3,800 -1,740 Descending Indianapolis Center
05:07PM 39.1833 -84.6667 250° West 216 249 2,900 -1,260 Descending Cincinnati TRACON